Time;durP1;ratioP1;P1;durP2;ratioP2;P2;SDS_P1;SDS_P2;PMS_P1;PMS_P2;Temp;Humidity;BMP_temperature;BMP_pressure;BME280_temperature;BME280_humidity;BME280_pressure;Samples;Min_cycle;Max_cycle;Signal;HPM_P1;HPM_P2
2022/09/25 00:01:10;;;;;;;22.43;17.63;;;13.90;99.90;;;;;;4988467;28;20724;-61
2022/09/25 00:03:38;;;;;;;27.63;20.47;;;13.90;99.90;;;;;;4987740;28;20194;-61
2022/09/25 00:06:12;;;;;;;18.07;15.47;;;13.90;99.90;;;;;;4970891;28;20213;-61
2022/09/25 00:08:39;;;;;;;23.42;18.30;;;13.90;99.90;;;;;;4986691;28;20197;-62
2022/09/25 00:11:12;;;;;;;22.90;17.13;;;13.90;99.90;;;;;;4989373;28;20206;-61
2022/09/25 00:13:41;;;;;;;28.90;20.75;;;13.90;96.10;;;;;;4988189;28;20233;-61
2022/09/25 00:16:15;;;;;;;26.97;19.77;;;13.80;25.30;;;;;;4988149;28;20313;-62
2022/09/25 00:21:30;;;;;;;26.63;19.63;;;13.70;99.90;;;;;;4975023;28;20216;-62
2022/09/25 00:24:03;;;;;;;20.33;16.50;;;13.60;99.90;;;;;;4991638;28;20202;-62
2022/09/25 00:26:32;;;;;;;26.97;18.97;;;13.70;99.90;;;;;;4991674;28;20224;-62
2022/09/25 00:29:00;;;;;;;20.43;14.97;;;13.70;99.90;;;;;;4973724;28;20213;-61
2022/09/25 00:31:28;;;;;;;16.50;14.23;;;13.70;99.90;;;;;;4992038;28;20695;-61
2022/09/25 00:34:00;;;;;;;22.33;15.70;;;13.60;99.90;;;;;;4991487;28;20204;-61
2022/09/25 00:36:28;;;;;;;23.23;16.97;;;13.80;99.90;;;;;;4966839;28;20288;-61
2022/09/25 00:38:55;;;;;;;16.57;13.37;;;13.70;1.00;;;;;;4991191;28;20201;-61
2022/09/25 00:41:24;;;;;;;16.23;12.33;;;13.80;96.60;;;;;;4990803;28;20197;-61
2022/09/25 00:43:55;;;;;;;16.27;13.87;;;13.90;1.00;;;;;;4966695;28;20585;-61
2022/09/25 00:46:35;;;;;;;19.27;13.93;;;13.90;1.00;;;;;;4991736;28;20280;-63
2022/09/25 00:49:04;;;;;;;15.37;12.33;;;13.90;1.00;;;;;;4991956;28;20193;-61
2022/09/25 00:51:40;;;;;;;17.53;12.30;;;14.00;1.00;;;;;;4991640;28;20228;-61
2022/09/25 00:54:23;;;;;;;16.30;11.43;;;13.80;1.00;;;;;;4992008;28;20740;-61
2022/09/25 00:56:53;;;;;;;18.13;11.27;;;13.90;1.00;;;;;;4991633;28;20520;-61
2022/09/25 00:59:25;;;;;;;13.23;10.87;;;13.90;1.00;;;;;;4965907;28;20225;-61
2022/09/25 01:01:54;;;;;;;17.60;11.43;;;13.90;1.00;;;;;;4982374;28;20197;-61
2022/09/25 01:04:21;;;;;;;10.37;9.00;;;13.90;1.00;;;;;;4991057;28;20200;-61
2022/09/25 01:06:49;;;;;;;18.27;9.77;;;13.90;1.00;;;;;;4973725;28;20617;-61
2022/09/25 01:09:17;;;;;;;15.93;9.90;;;14.00;1.00;;;;;;5006270;28;20857;-61
2022/09/25 01:11:44;;;;;;;12.10;9.43;;;14.00;1.00;;;;;;4991173;28;20190;-61
2022/09/25 01:14:15;;;;;;;10.67;8.77;;;14.10;1.00;;;;;;4991912;28;20208;-61
2022/09/25 01:16:58;;;;;;;15.67;9.43;;;14.20;1.00;;;;;;4990953;28;20339;-61
2022/09/25 01:19:44;;;;;;;15.87;9.97;;;14.10;1.00;;;;;;4991303;28;20241;-61
2022/09/25 01:22:42;;;;;;;14.23;8.93;;;13.90;1.00;;;;;;4991547;28;20280;-61
2022/09/25 01:25:40;;;;;;;9.80;7.80;;;13.90;1.00;;;;;;4991019;28;20289;-61
2022/09/25 01:28:30;;;;;;;14.15;8.18;;;14.00;1.00;;;;;;4970952;28;20220;-61
2022/09/25 01:31:03;;;;;;;13.13;7.50;;;14.10;1.00;;;;;;4989786;28;20261;-61
2022/09/25 01:33:35;;;;;;;10.13;7.35;;;14.00;1.00;;;;;;5006081;28;20213;-61
2022/09/25 01:36:13;;;;;;;10.27;7.33;;;14.10;1.00;;;;;;4991197;28;20266;-61
2022/09/25 01:38:50;;;;;;;12.05;7.03;;;14.00;1.00;;;;;;5006875;28;20300;-62
2022/09/25 01:41:40;;;;;;;12.53;6.67;;;13.90;1.00;;;;;;4974049;28;20300;-61
2022/09/25 01:44:28;;;;;;;12.95;7.35;;;13.80;1.00;;;;;;4974184;28;20230;-62
2022/09/25 01:47:02;;;;;;;14.37;6.87;;;13.80;1.00;;;;;;4989944;28;20204;-62
2022/09/25 01:49:37;;;;;;;9.87;6.67;;;13.70;1.00;;;;;;4989636;28;20311;-61
2022/09/25 01:52:11;;;;;;;11.93;6.53;;;13.70;1.00;;;;;;4964016;28;20261;-61
2022/09/25 01:54:50;;;;;;;8.63;5.70;;;13.70;1.00;;;;;;5005186;28;20780;-62
2022/09/25 01:57:20;;;;;;;9.23;5.90;;;13.90;1.00;;;;;;4990517;28;20231;-61
2022/09/25 01:59:57;;;;;;;9.73;6.07;;;13.90;1.00;;;;;;4972621;28;20686;-61
2022/09/25 02:02:32;;;;;;;9.97;5.37;;;13.90;1.00;;;;;;4972204;28;20700;-61
2022/09/25 02:05:25;;;;;;;9.70;5.30;;;14.00;1.00;;;;;;5004448;28;20264;-61
2022/09/25 02:08:07;;;;;;;8.07;5.30;;;14.10;1.00;;;;;;4981845;28;20264;-62
2022/09/25 02:10:40;;;;;;;9.68;5.00;;;14.10;1.00;;;;;;4972123;28;20304;-62
2022/09/25 02:13:12;;;;;;;10.10;4.72;;;14.20;99.90;;;;;;5005393;28;20736;-62
2022/09/25 02:15:52;;;;;;;11.80;4.68;;;14.10;99.90;;;;;;4972988;28;20220;-62
2022/09/25 02:21:29;;;;;;;8.00;4.60;;;14.10;99.90;;;;;;4970486;28;20701;-62
2022/09/25 02:24:20;;;;;;;9.33;4.57;;;13.90;99.90;;;;;;4971154;28;20213;-65
2022/09/25 02:26:48;;;;;;;7.70;4.33;;;13.80;1.00;;;;;;4969866;28;20375;-61
2022/09/25 02:29:17;;;;;;;9.83;4.30;;;13.80;1.00;;;;;;4985172;28;20587;-61
2022/09/25 02:31:54;;;;;;;10.83;4.13;;;13.60;1.00;;;;;;4970589;28;20662;-61
2022/09/25 02:34:22;;;;;;;7.27;4.23;;;13.50;1.00;;;;;;4970436;28;20190;-62
2022/09/25 02:36:49;;;;;;;10.40;4.20;;;13.50;1.00;;;;;;4969081;28;20209;-62
2022/09/25 02:39:20;;;;;;;8.97;4.23;;;13.40;1.00;;;;;;4971059;28;20217;-63
2022/09/25 02:42:12;;;;;;;10.30;4.50;;;13.30;1.00;;;;;;4968433;28;20309;-62
2022/09/25 02:44:39;;;;;;;9.97;4.50;;;13.40;15.20;;;;;;4970314;28;20306;-62
2022/09/25 02:47:41;;;;;;;13.77;4.93;;;13.40;1.00;;;;;;4985413;28;20245;-62
2022/09/25 02:50:36;;;;;;;16.30;4.60;;;13.40;1.00;;;;;;4929033;28;20227;-63
2022/09/25 02:53:18;;;;;;;13.40;4.17;;;13.40;1.00;;;;;;4968607;28;20214;-62
2022/09/25 02:55:56;;;;;;;8.13;3.63;;;13.40;1.00;;;;;;4984170;28;20682;-63
2022/09/25 02:58:28;;;;;;;11.77;3.47;;;13.50;1.00;;;;;;4967856;28;20236;-61
2022/09/25 03:00:58;;;;;;;7.27;3.40;;;13.40;1.00;;;;;;4984145;28;20710;-61
2022/09/25 03:03:26;;;;;;;10.50;3.67;;;13.40;1.00;;;;;;4970033;28;20190;-61
2022/09/25 03:05:57;;;;;;;10.30;3.40;;;13.40;1.00;;;;;;4968092;28;20186;-62
2022/09/25 03:08:40;;;;;;;10.47;3.97;;;13.60;1.00;;;;;;4969202;28;20198;-62
2022/09/25 03:11:14;;;;;;;16.50;3.33;;;13.40;1.00;;;;;;4969151;28;20206;-62
2022/09/25 03:13:43;;;;;;;13.27;3.53;;;13.30;1.00;;;;;;4968385;28;20780;-62
2022/09/25 03:16:12;;;;;;;6.83;2.87;;;13.40;1.00;;;;;;4972105;28;20764;-62
2022/09/25 03:18:39;;;;;;;6.53;2.57;;;13.50;1.00;;;;;;4988000;28;20194;-61
2022/09/25 03:21:06;;;;;;;8.60;3.30;;;13.60;1.00;;;;;;4974421;28;20225;-61
2022/09/25 03:23:33;;;;;;;10.47;2.60;;;13.40;1.00;;;;;;4972301;28;20206;-61
2022/09/25 03:26:00;;;;;;;10.83;2.70;;;13.40;99.90;;;;;;4963091;28;20201;-61
2022/09/25 03:28:28;;;;;;;6.20;2.53;;;13.20;1.00;;;;;;4965520;28;20288;-61
2022/09/25 03:31:05;;;;;;;7.27;2.43;;;13.40;1.00;;;;;;4988635;28;20205;-62
2022/09/25 03:33:35;;;;;;;6.90;3.03;;;13.50;99.90;;;;;;4971789;28;20208;-62
2022/09/25 03:36:17;;;;;;;8.30;2.53;;;13.40;99.90;;;;;;4978661;28;20332;-61
2022/09/25 03:38:47;;;;;;;7.93;2.50;;;13.50;1.00;;;;;;4989269;28;20276;-61
2022/09/25 03:41:18;;;;;;;7.53;2.93;;;13.70;99.90;;;;;;4972345;28;20229;-62
2022/09/25 03:43:50;;;;;;;8.07;2.53;;;13.70;99.90;;;;;;4966401;28;20201;-61
2022/09/25 03:46:23;;;;;;;7.07;2.27;;;13.50;7.20;;;;;;4971199;28;20197;-61
2022/09/25 03:48:51;;;;;;;9.70;2.63;;;13.60;99.90;;;;;;4956020;28;20208;-61
2022/09/25 03:51:19;;;;;;;7.53;2.20;;;13.70;99.90;;;;;;4989379;28;20206;-63
2022/09/25 03:53:47;;;;;;;8.27;2.60;;;13.80;33.10;;;;;;4992763;28;20205;-63
2022/09/25 03:56:21;;;;;;;6.90;2.30;;;13.70;1.00;;;;;;5007871;28;20197;-61
2022/09/25 03:58:50;;;;;;;9.00;2.17;;;13.70;1.00;;;;;;4994094;28;20830;-61
2022/09/25 04:01:20;;;;;;;9.13;2.80;;;13.50;1.00;;;;;;4991596;28;20215;-61
2022/09/25 04:03:48;;;;;;;8.10;2.13;;;13.60;1.00;;;;;;4993047;28;20221;-61
2022/09/25 04:06:18;;;;;;;6.90;2.10;;;13.50;1.00;;;;;;4975682;28;20221;-60
2022/09/25 04:08:47;;;;;;;9.87;2.67;;;13.40;18.90;;;;;;4991402;28;20193;-63
2022/09/25 04:11:15;;;;;;;9.37;4.93;;;13.50;99.90;;;;;;4975482;28;20202;-63
2022/09/25 04:13:45;;;;;;;11.03;3.70;;;13.50;96.90;;;;;;4974814;28;20228;-60
2022/09/25 04:16:14;;;;;;;8.03;3.00;;;13.60;1.00;;;;;;4990587;28;20240;-61
2022/09/25 04:18:43;;;;;;;11.37;3.20;;;13.60;1.00;;;;;;4974486;28;20202;-60
2022/09/25 04:21:12;;;;;;;10.47;2.90;;;13.50;1.00;;;;;;4974195;28;20213;-61
2022/09/25 04:23:40;;;;;;;6.03;2.90;;;13.30;1.00;;;;;;5007147;28;20237;-60
2022/09/25 04:26:08;;;;;;;12.30;5.17;;;13.20;1.00;;;;;;4992943;28;20277;-61
2022/09/25 04:28:36;;;;;;;9.83;4.53;;;13.20;1.00;;;;;;4981191;28;20689;-61
2022/09/25 04:31:03;;;;;;;17.60;9.60;;;13.20;1.00;;;;;;4991973;28;20213;-60
2022/09/25 04:33:46;;;;;;;12.50;4.63;;;13.10;37.70;;;;;;4992599;28;20556;-60
2022/09/25 04:36:17;;;;;;;12.03;3.63;;;12.90;65.10;;;;;;5005740;28;20236;-60
2022/09/25 04:38:46;;;;;;;12.70;4.33;;;12.70;99.90;;;;;;4975231;28;20205;-60
2022/09/25 04:41:18;;;;;;;11.77;5.10;;;12.70;99.90;;;;;;4992697;28;20292;-60
2022/09/25 04:43:46;;;;;;;10.80;2.87;;;12.90;99.90;;;;;;4992234;28;20205;-61
2022/09/25 04:46:13;;;;;;;12.47;4.40;;;12.90;99.90;;;;;;4992155;28;20204;-61
2022/09/25 04:48:48;;;;;;;10.90;3.47;;;12.90;56.40;;;;;;4992752;28;20193;-61
2022/09/25 04:51:15;;;;;;;9.47;2.97;;;12.90;99.90;;;;;;4991658;28;20216;-59
2022/09/25 04:53:42;;;;;;;8.67;3.60;;;12.80;99.90;;;;;;5006951;28;20732;-59
2022/09/25 04:56:12;;;;;;;7.50;2.50;;;12.80;99.90;;;;;;5007679;28;21170;-59
2022/09/25 04:58:48;;;;;;;14.27;4.67;;;12.90;54.50;;;;;;4992051;28;20218;-59
2022/09/25 05:01:17;;;;;;;17.17;9.43;;;12.60;99.90;;;;;;4992208;28;20213;-59
2022/09/25 05:03:52;;;;;;;19.10;9.67;;;12.60;99.90;;;;;;4990359;28;20212;-59
2022/09/25 05:06:20;;;;;;;11.87;6.53;;;12.50;99.90;;;;;;4990539;28;20252;-59
2022/09/25 05:08:51;;;;;;;9.03;2.80;;;12.40;99.90;;;;;;5006447;28;21260;-60
2022/09/25 05:11:18;;;;;;;8.10;3.30;;;12.30;99.90;;;;;;4975063;28;20237;-60
2022/09/25 05:13:50;;;;;;;17.37;10.57;;;12.20;99.90;;;;;;4992180;28;20317;-60
2022/09/25 05:16:19;;;;;;;11.23;4.03;;;12.00;1.00;;;;;;4992212;28;20697;-60
2022/09/25 05:18:46;;;;;;;10.63;3.43;;;11.90;1.00;;;;;;4991762;28;20297;-60
2022/09/25 05:21:13;;;;;;;13.10;4.60;;;11.80;1.00;;;;;;4991284;28;20693;-59
2022/09/25 05:23:40;;;;;;;9.07;3.57;;;11.70;1.00;;;;;;4982706;28;20217;-60
2022/09/25 05:26:09;;;;;;;13.47;5.50;;;11.60;1.00;;;;;;4983940;28;20209;-59
2022/09/25 05:28:36;;;;;;;13.27;5.33;;;11.50;55.30;;;;;;4991772;28;20313;-59
2022/09/25 05:31:04;;;;;;;13.50;3.10;;;11.50;99.90;;;;;;4964887;28;20206;-59
2022/09/25 05:33:33;;;;;;;11.17;3.13;;;11.40;99.90;;;;;;4990277;28;20202;-61
2022/09/25 05:36:05;;;;;;;10.20;4.30;;;11.40;99.90;;;;;;4991219;28;20693;-59
2022/09/25 05:38:33;;;;;;;8.73;2.87;;;11.40;99.90;;;;;;4991675;28;20288;-60
2022/09/25 05:41:05;;;;;;;7.47;2.70;;;11.30;99.90;;;;;;5006134;28;20291;-59
2022/09/25 05:43:34;;;;;;;15.63;5.90;;;11.40;99.90;;;;;;4991141;28;20586;-61
2022/09/25 05:46:01;;;;;;;17.37;9.00;;;11.30;99.90;;;;;;5005543;28;20609;-58
2022/09/25 05:48:28;;;;;;;17.20;8.70;;;11.40;99.90;;;;;;4992314;28;20208;-59
2022/09/25 05:50:56;;;;;;;16.77;7.50;;;11.50;99.90;;;;;;4990922;28;20276;-58
2022/09/25 05:53:25;;;;;;;10.53;4.10;;;11.70;1.00;;;;;;4991451;28;20211;-60
2022/09/25 05:55:58;;;;;;;12.47;3.53;;;11.80;32.90;;;;;;4974240;28;20197;-61
2022/09/25 05:58:27;;;;;;;9.47;3.17;;;11.70;1.00;;;;;;4991812;28;20193;-58
2022/09/25 06:00:55;;;;;;;12.87;3.30;;;11.60;1.00;;;;;;4974092;28;20296;-59
2022/09/25 06:03:22;;;;;;;6.97;2.83;;;11.60;1.00;;;;;;4957700;28;20212;-58
2022/09/25 06:05:48;;;;;;;10.77;2.63;;;11.60;1.00;;;;;;4990799;28;20227;-59
2022/09/25 06:08:15;;;;;;;7.87;3.37;;;11.60;1.00;;;;;;4990970;28;20749;-59
2022/09/25 06:10:42;;;;;;;10.37;4.23;;;11.60;1.00;;;;;;4989976;28;20216;-59
2022/09/25 06:13:09;;;;;;;9.57;4.37;;;11.60;1.00;;;;;;4982494;28;20577;-58
2022/09/25 06:15:40;;;;;;;9.30;3.63;;;11.60;1.00;;;;;;4989914;28;20201;-58
2022/09/25 06:18:08;;;;;;;14.80;3.87;;;11.70;1.00;;;;;;4958260;28;20298;-59
2022/09/25 06:20:35;;;;;;;14.40;3.90;;;11.70;1.00;;;;;;5005723;28;20197;-59
2022/09/25 06:23:02;;;;;;;10.97;3.93;;;11.70;1.00;;;;;;5006126;28;20201;-58
2022/09/25 06:25:35;;;;;;;12.97;6.50;;;11.70;1.00;;;;;;4973709;28;20229;-58
2022/09/25 06:28:02;;;;;;;12.23;4.50;;;11.80;1.00;;;;;;4973608;28;20190;-60
2022/09/25 06:30:35;;;;;;;10.60;4.53;;;11.90;1.00;;;;;;4989990;28;20206;-59
2022/09/25 06:33:11;;;;;;;12.30;3.53;;;11.90;1.00;;;;;;4990366;28;20276;-59
2022/09/25 06:35:43;;;;;;;12.43;3.40;;;12.00;1.00;;;;;;4990394;28;20233;-59
2022/09/25 06:38:11;;;;;;;12.83;3.30;;;12.10;99.90;;;;;;4989307;28;20220;-58
2022/09/25 06:40:39;;;;;;;7.83;2.70;;;12.40;99.90;;;;;;4960084;28;20206;-60
2022/09/25 06:43:12;;;;;;;12.87;3.67;;;13.00;1.00;;;;;;4969455;28;20204;-60
2022/09/25 06:45:40;;;;;;;6.73;3.10;;;15.40;99.90;;;;;;4981726;28;20691;-61
2022/09/25 06:48:13;;;;;;;8.48;2.65;;;16.80;1.00;;;;;;4990514;28;20193;-60
2022/09/25 06:50:42;;;;;;;8.88;2.63;;;18.40;1.00;;;;;;4989548;28;20197;-60
2022/09/25 06:53:10;;;;;;;7.80;2.33;;;19.40;99.90;;;;;;4989030;28;20239;-61
2022/09/25 06:55:37;;;;;;;5.65;2.25;;;20.30;99.90;;;;;;5004962;28;20197;-61
2022/09/25 06:58:05;;;;;;;6.68;2.30;;;21.90;99.90;;;;;;5004936;28;20241;-65
2022/09/25 07:00:33;;;;;;;7.53;3.10;;;23.00;99.90;;;;;;4990395;28;20200;-61
2022/09/25 07:05:47;;;;;;;6.35;2.10;;;26.00;99.90;;;;;;4981234;28;20208;-62
2022/09/25 07:08:16;;;;;;;7.90;2.25;;;26.90;99.90;;;;;;4989049;28;20198;-61
2022/09/25 07:10:51;;;;;;;5.47;2.80;;;28.20;99.90;;;;;;4965447;28;20704;-61
2022/09/25 07:13:23;;;;;;;8.50;2.50;;;28.10;99.90;;;;;;4989364;28;20221;-61
2022/09/25 07:16:04;;;;;;;8.90;2.70;;;28.60;98.20;;;;;;4989072;28;20616;-61
2022/09/25 07:18:32;;;;;;;7.18;2.33;;;29.40;97.70;;;;;;4989034;28;20288;-60
2022/09/25 07:21:01;;;;;;;7.03;1.95;;;28.20;91.90;;;;;;4988764;28;20449;-61
2022/09/25 07:23:30;;;;;;;7.10;2.55;;;25.50;90.80;;;;;;4964083;28;20613;-59
2022/09/25 07:26:06;;;;;;;8.88;2.40;;;22.70;91.40;;;;;;4989361;28;20830;-59
2022/09/25 07:28:34;;;;;;;8.07;2.38;;;21.30;95.30;;;;;;4989214;28;20205;-59
2022/09/25 07:31:19;;;;;;;7.82;2.30;;;20.50;99.90;;;;;;5004688;28;20213;-60
2022/09/25 07:33:47;;;;;;;7.35;2.40;;;20.20;99.90;;;;;;5005386;28;20201;-60
2022/09/25 07:36:15;;;;;;;6.10;2.08;;;19.30;99.90;;;;;;4989504;28;20609;-59
2022/09/25 07:38:44;;;;;;;6.57;2.00;;;19.20;99.90;;;;;;4989516;28;20610;-59
2022/09/25 07:41:12;;;;;;;14.50;2.70;;;20.90;99.90;;;;;;4989539;28;20261;-60
2022/09/25 07:43:42;;;;;;;8.55;2.67;;;23.10;99.90;;;;;;4989357;28;20205;-61
2022/09/25 07:46:09;;;;;;;7.63;2.63;;;26.50;99.90;;;;;;4987313;28;20580;-61
2022/09/25 07:48:37;;;;;;;7.57;2.50;;;29.20;94.20;;;;;;4987923;28;20650;-62
2022/09/25 07:51:06;;;;;;;9.40;2.83;;;30.80;90.40;;;;;;4987949;28;20230;-61
2022/09/25 07:53:33;;;;;;;7.68;2.83;;;31.20;80.60;;;;;;4987958;28;20364;-61
2022/09/25 07:56:01;;;;;;;6.85;2.30;;;30.90;76.70;;;;;;4969655;28;20205;-61
2022/09/25 07:58:36;;;;;;;6.93;2.28;;;31.50;70.90;;;;;;4987396;28;20205;-62
2022/09/25 08:01:06;;;;;;;6.35;2.00;;;31.70;68.70;;;;;;4987496;28;20202;-62
2022/09/25 08:03:33;;;;;;;7.43;2.35;;;30.80;56.80;;;;;;4987390;28;20661;-61
2022/09/25 08:06:03;;;;;;;4.10;1.85;;;30.50;57.70;;;;;;4987811;28;20208;-62
2022/09/25 08:08:30;;;;;;;6.85;2.00;;;31.90;85.90;;;;;;4988002;28;20225;-62
2022/09/25 08:11:01;;;;;;;4.65;1.75;;;32.50;52.90;;;;;;4987195;28;20193;-61
2022/09/25 08:13:31;;;;;;;6.60;1.88;;;33.00;55.30;;;;;;5002401;28;20222;-61
2022/09/25 08:16:02;;;;;;;7.55;2.17;;;33.40;52.10;;;;;;4987831;28;20201;-62
2022/09/25 08:18:29;;;;;;;6.85;2.20;;;34.00;51.20;;;;;;5003414;28;20240;-62
2022/09/25 08:21:01;;;;;;;6.28;2.20;;;34.30;48.20;;;;;;5003455;28;20194;-61
2022/09/25 08:23:29;;;;;;;4.47;1.90;;;34.90;47.00;;;;;;4988009;28;20219;-62
2022/09/25 08:25:56;;;;;;;6.07;2.13;;;35.70;43.50;;;;;;4970382;28;20298;-61
2022/09/25 08:28:23;;;;;;;9.55;1.98;;;33.60;33.90;;;;;;4964474;28;20211;-62
2022/09/25 08:30:50;;;;;;;5.38;1.58;;;30.10;33.10;;;;;;4987362;28;20305;-61
2022/09/25 08:33:17;;;;;;;6.75;2.00;;;27.40;33.90;;;;;;4987732;28;20289;-62
2022/09/25 08:35:53;;;;;;;4.03;1.90;;;24.50;42.40;;;;;;4987491;28;20993;-60
2022/09/25 08:38:20;;;;;;;6.38;2.00;;;23.20;49.80;;;;;;4988034;28;20212;-61
2022/09/25 08:40:55;;;;;;;5.95;1.90;;;22.60;51.50;;;;;;5003691;28;20564;-61
2022/09/25 08:43:24;;;;;;;5.78;1.90;;;22.50;57.30;;;;;;5006884;28;20264;-62
2022/09/25 08:49:01;;;;;;;9.10;2.25;;;26.60;51.20;;;;;;4972392;28;20193;-61
2022/09/25 08:51:30;;;;;;;3.50;1.60;;;30.70;50.80;;;;;;5005302;28;20717;-62
2022/09/25 08:53:59;;;;;;;6.18;2.00;;;31.70;42.70;;;;;;4989999;28;20193;-66
2022/09/25 08:56:31;;;;;;;6.53;1.90;;;30.80;38.60;;;;;;4990617;28;20265;-60
2022/09/25 08:59:10;;;;;;;6.68;1.95;;;27.60;38.10;;;;;;4991033;28;20219;-60
2022/09/25 09:01:45;;;;;;;8.30;2.08;;;27.80;38.00;;;;;;4990697;28;20205;-62
2022/09/25 09:04:31;;;;;;;9.27;2.38;;;25.60;37.40;;;;;;4990769;28;20193;-62
2022/09/25 09:07:16;;;;;;;8.35;2.00;;;23.40;40.80;;;;;;4991422;28;20301;-61
2022/09/25 09:10:16;;;;;;;5.55;1.98;;;21.90;51.40;;;;;;4990939;28;20654;-61
2022/09/25 09:12:47;;;;;;;6.93;1.50;;;21.90;64.30;;;;;;4973270;28;20227;-61
2022/09/25 09:15:44;;;;;;;8.82;2.35;;;23.00;57.60;;;;;;4973089;28;20202;-60
2022/09/25 09:18:24;;;;;;;7.15;2.00;;;22.60;58.80;;;;;;4990333;28;20205;-60
2022/09/25 09:20:57;;;;;;;7.63;1.95;;;29.90;56.80;;;;;;4987579;28;20211;-62
2022/09/25 09:23:35;;;;;;;6.93;2.03;;;34.30;45.10;;;;;;4990351;28;20735;-62
2022/09/25 09:26:05;;;;;;;5.35;1.58;;;36.20;39.80;;;;;;4989940;28;20251;-62
2022/09/25 09:28:50;;;;;;;5.45;1.70;;;33.90;29.90;;;;;;4965571;28;20730;-63
2022/09/25 09:31:38;;;;;;;5.70;1.77;;;28.30;27.50;;;;;;4990364;28;20197;-62
2022/09/25 09:34:29;;;;;;;7.43;1.88;;;25.00;31.80;;;;;;5005309;28;20186;-61
2022/09/25 09:37:31;;;;;;;7.03;1.88;;;25.40;41.00;;;;;;4990693;28;20193;-61
2022/09/25 09:40:26;;;;;;;7.28;1.95;;;25.00;33.90;;;;;;4990206;28;20196;-61
2022/09/25 09:43:11;;;;;;;6.25;1.70;;;23.60;35.00;;;;;;5005075;28;20221;-61
2022/09/25 09:45:43;;;;;;;7.55;2.28;;;22.70;37.10;;;;;;5005168;28;20229;-61
2022/09/25 09:48:21;;;;;;;6.75;1.90;;;22.20;40.40;;;;;;4990530;28;20255;-62
2022/09/25 09:50:55;;;;;;;5.72;2.00;;;24.60;43.70;;;;;;5005717;28;20186;-61
2022/09/25 09:53:29;;;;;;;5.18;2.03;;;25.70;49.90;;;;;;5001085;28;20194;-60
2022/09/25 09:56:22;;;;;;;5.88;2.13;;;27.60;42.80;;;;;;4990240;28;20589;-61
2022/09/25 09:59:03;;;;;;;6.63;1.88;;;28.60;34.70;;;;;;4990311;28;20225;-61
2022/09/25 10:01:33;;;;;;;5.88;2.03;;;25.10;34.40;;;;;;4987291;28;20209;-63
2022/09/25 10:04:16;;;;;;;6.80;1.80;;;29.90;44.90;;;;;;4990155;28;20193;-61
2022/09/25 10:06:51;;;;;;;6.70;2.08;;;33.80;37.30;;;;;;4989764;28;20192;-61
2022/09/25 10:09:18;;;;;;;8.70;1.95;;;34.40;27.40;;;;;;4990570;28;20197;-60
2022/09/25 10:11:56;;;;;;;8.45;2.40;;;31.30;23.80;;;;;;5005219;28;20760;-61
2022/09/25 10:14:31;;;;;;;2.92;1.38;;;27.90;22.50;;;;;;5004333;28;20215;-61
2022/09/25 10:16:58;;;;;;;4.97;1.90;;;25.30;23.40;;;;;;4981004;28;20275;-61
2022/09/25 10:19:28;;;;;;;6.97;1.80;;;23.60;26.20;;;;;;4980793;28;20249;-60
2022/09/25 10:22:05;;;;;;;6.18;1.73;;;25.00;36.20;;;;;;4990315;28;20205;-60
2022/09/25 10:25:04;;;;;;;6.82;1.70;;;29.10;35.10;;;;;;4989511;28;20616;-60
2022/09/25 10:27:40;;;;;;;3.47;1.33;;;32.30;31.40;;;;;;4965297;28;20217;-62
2022/09/25 10:30:10;;;;;;;5.38;1.30;;;34.60;27.70;;;;;;4990012;28;20205;-60
2022/09/25 10:32:58;;;;;;;4.55;1.70;;;37.20;27.60;;;;;;4984999;28;20240;-60
2022/09/25 10:35:37;;;;;;;3.53;1.42;;;37.60;24.80;;;;;;4971090;28;20209;-60
2022/09/25 10:38:20;;;;;;;5.10;1.50;;;32.40;14.80;;;;;;4989579;28;20203;-60
2022/09/25 10:41:13;;;;;;;5.20;1.30;;;27.60;12.90;;;;;;4988865;28;20199;-60
2022/09/25 10:44:00;;;;;;;6.78;1.60;;;24.70;18.70;;;;;;4989441;28;20284;-59
2022/09/25 10:52:13;;;;;;;5.70;1.50;;;25.90;31.40;;;;;;4972455;28;20292;-61
2022/09/25 10:54:41;;;;;;;2.67;0.90;;;28.50;28.30;;;;;;4987137;28;20206;-61
2022/09/25 10:57:34;;;;;;;2.97;1.35;;;28.80;23.60;;;;;;4986318;28;20256;-61
2022/09/25 11:00:04;;;;;;;3.58;1.20;;;27.10;18.00;;;;;;4988730;28;20716;-61
2022/09/25 11:02:41;;;;;;;2.72;0.98;;;24.90;19.40;;;;;;4979212;28;20221;-60
2022/09/25 11:05:22;;;;;;;3.03;1.10;;;23.30;18.40;;;;;;4988161;28;20197;-61
2022/09/25 11:07:53;;;;;;;7.22;1.48;;;24.10;24.20;;;;;;4989389;28;20205;-61
2022/09/25 11:10:23;;;;;;;3.90;1.45;;;23.90;21.00;;;;;;4988991;28;20229;-61
2022/09/25 11:12:51;;;;;;;5.03;1.40;;;23.30;21.60;;;;;;4983339;28;20284;-61
2022/09/25 11:15:22;;;;;;;3.45;1.48;;;22.00;17.90;;;;;;4988748;28;20681;-61
2022/09/25 11:17:53;;;;;;;6.50;1.85;;;21.10;20.40;;;;;;4989964;28;20268;-60
2022/09/25 11:20:28;;;;;;;3.72;1.33;;;22.60;31.90;;;;;;4988674;28;20260;-61
2022/09/25 11:22:54;;;;;;;4.32;1.13;;;25.60;28.90;;;;;;4988349;28;20243;-62
2022/09/25 11:25:57;;;;;;;4.80;2.60;;;26.90;22.50;;;;;;4988416;28;20764;-61
2022/09/25 11:28:48;;;;;;;7.35;5.28;;;26.60;20.30;;;;;;4986578;28;20296;-61
2022/09/25 11:31:28;;;;;;;7.38;5.65;;;27.20;19.90;;;;;;4989184;28;20225;-61
2022/09/25 11:34:06;;;;;;;6.32;5.20;;;27.80;20.70;;;;;;4989018;28;20228;-63
2022/09/25 11:36:44;;;;;;;12.25;4.90;;;27.90;18.20;;;;;;5003795;28;20197;-60
2022/09/25 11:42:32;;;;;;;5.13;3.15;;;24.00;16.50;;;;;;4985782;28;20220;-60
2022/09/25 11:45:18;;;;;;;5.25;3.33;;;22.70;17.30;;;;;;4987866;28;20203;-60
2022/09/25 11:47:53;;;;;;;6.57;4.22;;;21.80;19.40;;;;;;5005036;28;20321;-61
2022/09/25 11:50:31;;;;;;;7.15;3.85;;;21.10;23.20;;;;;;4988584;28;20205;-61
2022/09/25 11:53:03;;;;;;;4.90;3.15;;;20.90;25.10;;;;;;4989850;28;20209;-61
2022/09/25 11:56:09;;;;;;;6.63;1.80;;;20.90;27.50;;;;;;4978442;28;20357;-61
2022/09/25 11:58:56;;;;;;;5.53;1.67;;;20.60;25.00;;;;;;4954841;28;20665;-62
2022/09/25 12:01:49;;;;;;;3.20;1.60;;;20.70;28.20;;;;;;4989459;28;20229;-61
2022/09/25 12:04:31;;;;;;;7.80;3.60;;;21.60;31.00;;;;;;4967537;28;20728;-61
2022/09/25 12:07:22;;;;;;;7.68;4.30;;;23.90;27.00;;;;;;4987893;28;20228;-60
2022/09/25 12:10:08;;;;;;;3.50;1.40;;;25.80;24.40;;;;;;4988983;28;20196;-61
2022/09/25 12:12:58;;;;;;;3.53;1.83;;;26.40;36.40;;;;;;4988526;28;20370;-60
2022/09/25 12:15:41;;;;;;;3.38;2.10;;;26.10;17.60;;;;;;4990419;28;20196;-62
2022/09/25 12:18:23;;;;;;;4.85;2.42;;;25.40;15.30;;;;;;4993024;28;20243;-60
2022/09/25 12:21:22;;;;;;;3.67;2.05;;;23.40;12.70;;;;;;4993254;28;20232;-61
2022/09/25 12:24:03;;;;;;;3.65;1.88;;;22.60;13.50;;;;;;4993222;28;20217;-61
2022/09/25 12:26:43;;;;;;;4.43;2.40;;;22.80;14.00;;;;;;4991496;28;20666;-60
2022/09/25 12:29:24;;;;;;;4.03;1.17;;;23.20;18.00;;;;;;4992346;28;20210;-61
2022/09/25 12:32:03;;;;;;;4.35;2.17;;;24.00;11.80;;;;;;4992418;28;20217;-61
2022/09/25 12:35:01;;;;;;;5.40;2.03;;;24.70;19.10;;;;;;4967774;28;20209;-61
2022/09/25 12:37:42;;;;;;;4.55;1.60;;;24.60;17.00;;;;;;4990819;28;20208;-61
2022/09/25 12:40:30;;;;;;;5.55;1.85;;;24.00;15.00;;;;;;4974729;28;20703;-61
2022/09/25 12:43:03;;;;;;;3.35;1.90;;;23.40;16.20;;;;;;4974485;28;20210;-61
2022/09/25 12:45:46;;;;;;;4.50;1.50;;;23.10;17.30;;;;;;4974372;28;20194;-61
2022/09/25 12:48:23;;;;;;;5.18;2.40;;;23.10;16.10;;;;;;4990320;28;20249;-61
2022/09/25 12:51:22;;;;;;;3.30;1.83;;;23.10;19.90;;;;;;4990094;28;20320;-61
2022/09/25 12:54:02;;;;;;;6.07;1.92;;;22.80;18.20;;;;;;4973582;28;20210;-61
2022/09/25 12:56:40;;;;;;;4.78;2.35;;;22.50;16.70;;;;;;4974093;28;20205;-61
2022/09/25 12:59:17;;;;;;;4.22;2.47;;;22.30;19.00;;;;;;5007173;28;20248;-60
2022/09/25 13:02:10;;;;;;;6.60;2.70;;;22.00;18.20;;;;;;4992104;28;20582;-60
2022/09/25 13:05:01;;;;;;;4.60;2.10;;;20.90;17.80;;;;;;4990454;28;20193;-59
2022/09/25 13:07:58;;;;;;;4.18;2.13;;;20.60;17.40;;;;;;4991028;28;20221;-59
2022/09/25 13:10:42;;;;;;;5.40;1.90;;;20.40;18.60;;;;;;4990030;28;20189;-60
2022/09/25 13:13:19;;;;;;;5.25;2.20;;;20.50;16.50;;;;;;4991400;28;20251;-60
2022/09/25 13:16:01;;;;;;;2.92;1.63;;;20.50;17.20;;;;;;4990172;28;20266;-61
2022/09/25 13:18:32;;;;;;;5.78;1.60;;;20.30;18.10;;;;;;4990670;28;20197;-61
2022/09/25 13:21:30;;;;;;;3.60;1.65;;;20.10;16.50;;;;;;4989422;28;20201;-60
2022/09/25 13:23:58;;;;;;;2.97;1.48;;;19.90;12.80;;;;;;4990358;28;20764;-60
2022/09/25 13:26:26;;;;;;;4.32;1.55;;;19.60;11.00;;;;;;4989632;28;20213;-60
2022/09/25 13:28:59;;;;;;;4.03;1.42;;;19.60;13.90;;;;;;4991408;28;20217;-61
2022/09/25 13:31:32;;;;;;;3.30;1.33;;;19.80;12.50;;;;;;4990746;28;20201;-61
2022/09/25 13:33:59;;;;;;;2.45;1.08;;;19.80;11.80;;;;;;4990229;28;20208;-60
2022/09/25 13:36:31;;;;;;;4.68;1.70;;;19.80;10.30;;;;;;4989925;28;20256;-58
2022/09/25 13:42:01;;;;;;;2.28;1.85;;;19.80;15.20;;;;;;4986013;28;20206;-61
2022/09/25 13:44:55;;;;;;;2.08;1.60;;;19.90;15.90;;;;;;4991000;28;20239;-61
2022/09/25 13:47:36;;;;;;;4.47;1.65;;;20.00;13.00;;;;;;4973337;28;20189;-58